sensor_id;sensor_type;location;lat;lon;timestamp;pressure;altitude;pressure_sealevel;temperature;humidity
55044;BME280;54902;50.420;18.854;2022-07-25T00:00:07;102014.19;;;16.32;54.73
55044;BME280;54902;50.420;18.854;2022-07-25T00:00:25;102007.48;;;16.34;54.86
55044;BME280;54902;50.420;18.854;2022-07-25T00:00:41;102012.16;;;16.34;54.76
55044;BME280;54902;50.420;18.854;2022-07-25T00:00:57;102011.26;;;16.33;54.75
55044;BME280;54902;50.420;18.854;2022-07-25T00:01:13;102011.42;;;16.32;54.66
55044;BME280;54902;50.420;18.854;2022-07-25T00:01:29;102011.42;;;16.32;54.80
55044;BME280;54902;50.420;18.854;2022-07-25T00:01:45;102011.26;;;16.33;54.71
55044;BME280;54902;50.420;18.854;2022-07-25T00:02:01;102002.95;;;16.33;54.83
55044;BME280;54902;50.420;18.854;2022-07-25T00:02:17;102010.25;;;16.34;54.72
55044;BME280;54902;50.420;18.854;2022-07-25T00:02:34;102008.64;;;16.32;54.73
55044;BME280;54902;50.420;18.854;2022-07-25T00:02:50;102007.63;;;16.33;54.81
55044;BME280;54902;50.420;18.854;2022-07-25T00:03:06;102006.88;;;16.31;54.86
55044;BME280;54902;50.420;18.854;2022-07-25T00:03:22;102006.88;;;16.31;54.81
55044;BME280;54902;50.420;18.854;2022-07-25T00:03:38;101995.80;;;16.31;54.84
55044;BME280;54902;50.420;18.854;2022-07-25T00:03:54;102015.94;;;16.33;54.79
55044;BME280;54902;50.420;18.854;2022-07-25T00:04:10;102012.16;;;16.34;54.82
55044;BME280;54902;50.420;18.854;2022-07-25T00:04:29;102004.86;;;16.33;54.93
55044;BME280;54902;50.420;18.854;2022-07-25T00:04:45;102007.63;;;16.33;54.75
55044;BME280;54902;50.420;18.854;2022-07-25T00:05:01;102010.39;;;16.33;54.79
55044;BME280;54902;50.420;18.854;2022-07-25T00:05:18;102003.11;;;16.32;54.93
55044;BME280;54902;50.420;18.854;2022-07-25T00:05:35;102008.64;;;16.32;54.89
55044;BME280;54902;50.420;18.854;2022-07-25T00:05:51;102005.01;;;16.32;54.86
55044;BME280;54902;50.420;18.854;2022-07-25T00:06:07;102003.97;;;16.32;54.72
55044;BME280;54902;50.420;18.854;2022-07-25T00:06:13;102020.58;;;16.32;54.90
55044;BME280;54902;50.420;18.854;2022-07-25T00:06:23;102008.64;;;16.32;54.91
55044;BME280;54902;50.420;18.854;2022-07-25T00:06:40;102014.19;;;16.32;54.77
55044;BME280;54902;50.420;18.854;2022-07-25T00:06:56;102011.42;;;16.32;54.93
55044;BME280;54902;50.420;18.854;2022-07-25T00:07:12;102013.46;;;16.30;54.88
55044;BME280;54902;50.420;18.854;2022-07-25T00:07:28;102006.88;;;16.31;54.93
55044;BME280;54902;50.420;18.854;2022-07-25T00:07:45;102010.55;;;16.32;54.88
55044;BME280;54902;50.420;18.854;2022-07-25T00:08:01;102005.88;;;16.32;54.90
55044;BME280;54902;50.420;18.854;2022-07-25T00:08:17;102010.70;;;16.30;54.81
55044;BME280;54902;50.420;18.854;2022-07-25T00:08:33;102001.34;;;16.31;54.87
55044;BME280;54902;50.420;18.854;2022-07-25T00:08:50;102009.65;;;16.31;54.91
55044;BME280;54902;50.420;18.854;2022-07-25T00:09:06;102016.95;;;16.32;54.89
55044;BME280;54902;50.420;18.854;2022-07-25T00:09:23;102008.80;;;16.31;54.82
55044;BME280;54902;50.420;18.854;2022-07-25T00:09:39;102006.88;;;16.31;54.83
55044;BME280;54902;50.420;18.854;2022-07-25T00:09:55;102015.20;;;16.31;54.80
55044;BME280;54902;50.420;18.854;2022-07-25T00:10:11;102005.16;;;16.30;54.86
55044;BME280;54902;50.420;18.854;2022-07-25T00:10:27;102012.57;;;16.30;54.88
55044;BME280;54902;50.420;18.854;2022-07-25T00:10:43;102008.95;;;16.29;54.86
55044;BME280;54902;50.420;18.854;2022-07-25T00:11:00;102022.04;;;16.27;54.97
55044;BME280;54902;50.420;18.854;2022-07-25T00:11:16;102003.70;;;16.26;54.91
55044;BME280;54902;50.420;18.854;2022-07-25T00:11:32;102007.19;;;16.28;54.86
55044;BME280;54902;50.420;18.854;2022-07-25T00:11:49;102006.32;;;16.28;54.82
55044;BME280;54902;50.420;18.854;2022-07-25T00:12:05;102011.85;;;16.28;54.88
55044;BME280;54902;50.420;18.854;2022-07-25T00:12:21;102004.56;;;16.27;54.79
55044;BME280;54902;50.420;18.854;2022-07-25T00:12:37;102019.27;;;16.27;54.85
55044;BME280;54902;50.420;18.854;2022-07-25T00:12:53;102012.01;;;16.26;54.88
55044;BME280;54902;50.420;18.854;2022-07-25T00:13:10;102007.48;;;16.25;54.88
55044;BME280;54902;50.420;18.854;2022-07-25T00:13:26;102005.70;;;16.24;54.82
55044;BME280;54902;50.420;18.854;2022-07-25T00:13:42;102001.94;;;16.25;54.88
55044;BME280;54902;50.420;18.854;2022-07-25T00:13:58;102008.34;;;16.26;55.01
55044;BME280;54902;50.420;18.854;2022-07-25T00:14:14;102004.71;;;16.25;54.95
55044;BME280;54902;50.420;18.854;2022-07-25T00:14:30;102009.24;;;16.26;54.92
55044;BME280;54902;50.420;18.854;2022-07-25T00:14:46;102002.92;;;16.24;54.93
55044;BME280;54902;50.420;18.854;2022-07-25T00:15:04;102005.70;;;16.24;54.97
55044;BME280;54902;50.420;18.854;2022-07-25T00:15:21;102017.06;;;16.21;55.05
55044;BME280;54902;50.420;18.854;2022-07-25T00:15:37;102008.61;;;16.23;54.92
55044;BME280;54902;50.420;18.854;2022-07-25T00:15:53;102018.79;;;16.22;54.99
55044;BME280;54902;50.420;18.854;2022-07-25T00:16:09;102011.52;;;16.21;55.00
55044;BME280;54902;50.420;18.854;2022-07-25T00:16:25;102007.71;;;16.22;55.07
55044;BME280;54902;50.420;18.854;2022-07-25T00:16:47;102020.84;;;16.20;55.10
55044;BME280;54902;50.420;18.854;2022-07-25T00:17:03;102022.59;;;16.21;55.09
55044;BME280;54902;50.420;18.854;2022-07-25T00:17:19;102012.39;;;16.22;55.07
55044;BME280;54902;50.420;18.854;2022-07-25T00:17:35;102006.14;;;16.20;55.04
55044;BME280;54902;50.420;18.854;2022-07-25T00:17:51;102016.02;;;16.22;55.00
55044;BME280;54902;50.420;18.854;2022-07-25T00:18:07;102006.25;;;16.18;55.08
55044;BME280;54902;50.420;18.854;2022-07-25T00:18:23;101998.70;;;16.20;55.05
55044;BME280;54902;50.420;18.854;2022-07-25T00:18:39;102008.61;;;16.23;55.07
55044;BME280;54902;50.420;18.854;2022-07-25T00:18:57;102010.48;;;16.22;55.12
55044;BME280;54902;50.420;18.854;2022-07-25T00:19:13;102006.14;;;16.20;55.10
55044;BME280;54902;50.420;18.854;2022-07-25T00:19:29;102017.06;;;16.21;55.03
55044;BME280;54902;50.420;18.854;2022-07-25T00:19:45;102019.98;;;16.20;55.08
55044;BME280;54902;50.420;18.854;2022-07-25T00:20:02;102009.77;;;16.20;55.13
55044;BME280;54902;50.420;18.854;2022-07-25T00:20:18;102013.55;;;16.19;55.10
55044;BME280;54902;50.420;18.854;2022-07-25T00:20:34;102009.91;;;16.19;55.15
55044;BME280;54902;50.420;18.854;2022-07-25T00:20:50;102019.98;;;16.20;55.10
55044;BME280;54902;50.420;18.854;2022-07-25T00:21:07;102015.61;;;16.17;55.17
55044;BME280;54902;50.420;18.854;2022-07-25T00:21:14;102011.23;;;16.15;55.17
55044;BME280;54902;50.420;18.854;2022-07-25T00:21:23;102010.06;;;16.17;55.13
55044;BME280;54902;50.420;18.854;2022-07-25T00:21:39;102001.61;;;16.19;55.07
55044;BME280;54902;50.420;18.854;2022-07-25T00:21:55;102018.22;;;16.19;55.03
55044;BME280;54902;50.420;18.854;2022-07-25T00:22:13;102015.45;;;16.19;55.13
55044;BME280;54902;50.420;18.854;2022-07-25T00:22:29;102017.33;;;16.18;55.13
55044;BME280;54902;50.420;18.854;2022-07-25T00:22:45;102023.76;;;16.19;55.07
55044;BME280;54902;50.420;18.854;2022-07-25T00:23:01;102015.45;;;16.19;55.16
55044;BME280;54902;50.420;18.854;2022-07-25T00:23:17;102001.77;;;16.17;54.94
55044;BME280;54902;50.420;18.854;2022-07-25T00:23:33;102019.23;;;16.18;55.17
55044;BME280;54902;50.420;18.854;2022-07-25T00:23:49;102009.16;;;16.17;55.08
55044;BME280;54902;50.420;18.854;2022-07-25T00:24:05;102010.93;;;16.18;55.04
55044;BME280;54902;50.420;18.854;2022-07-25T00:24:22;102007.30;;;16.17;55.18
55044;BME280;54902;50.420;18.854;2022-07-25T00:24:38;102010.06;;;16.17;55.06
55044;BME280;54902;50.420;18.854;2022-07-25T00:24:54;102001.02;;;16.15;54.99
55044;BME280;54902;50.420;18.854;2022-07-25T00:25:10;102010.06;;;16.17;55.04
55044;BME280;54902;50.420;18.854;2022-07-25T00:25:26;101998.26;;;16.15;55.13
55044;BME280;54902;50.420;18.854;2022-07-25T00:25:43;102015.87;;;16.14;55.26
55044;BME280;54902;50.420;18.854;2022-07-25T00:25:59;102003.08;;;16.13;55.24
55044;BME280;54902;50.420;18.854;2022-07-25T00:26:15;102006.55;;;16.15;55.17
55044;BME280;54902;50.420;18.854;2022-07-25T00:26:31;102006.55;;;16.15;55.20
55044;BME280;54902;50.420;18.854;2022-07-25T00:26:54;102010.48;;;16.13;55.29
55044;BME280;54902;50.420;18.854;2022-07-25T00:27:10;102001.31;;;16.12;55.25
55044;BME280;54902;50.420;18.854;2022-07-25T00:27:26;101999.26;;;16.14;55.28
55044;BME280;54902;50.420;18.854;2022-07-25T00:27:42;102002.17;;;16.13;55.25
55044;BME280;54902;50.420;18.854;2022-07-25T00:27:58;102004.79;;;16.14;55.37
55044;BME280;54902;50.420;18.854;2022-07-25T00:28:14;102000.42;;;16.12;55.19
55044;BME280;54902;50.420;18.854;2022-07-25T00:28:30;102006.85;;;16.12;55.30
55044;BME280;54902;50.420;18.854;2022-07-25T00:28:47;101993.01;;;16.12;55.22
55044;BME280;54902;50.420;18.854;2022-07-25T00:29:03;101999.26;;;16.14;55.10
55044;BME280;54902;50.420;18.854;2022-07-25T00:29:19;102000.57;;;16.10;55.25
55044;BME280;54902;50.420;18.854;2022-07-25T00:29:35;101995.03;;;16.10;55.26
55044;BME280;54902;50.420;18.854;2022-07-25T00:29:51;102001.31;;;16.12;55.24
55044;BME280;54902;50.420;18.854;2022-07-25T00:30:08;101993.31;;;16.09;55.31
55044;BME280;54902;50.420;18.854;2022-07-25T00:30:25;101999.55;;;16.11;55.30
55044;BME280;54902;50.420;18.854;2022-07-25T00:30:41;101994.02;;;16.11;55.26
55044;BME280;54902;50.420;18.854;2022-07-25T00:30:57;101996.95;;;16.10;55.27
55044;BME280;54902;50.420;18.854;2022-07-25T00:31:13;102000.57;;;16.10;55.28
55044;BME280;54902;50.420;18.854;2022-07-25T00:31:30;102001.60;;;16.09;55.21
55044;BME280;54902;50.420;18.854;2022-07-25T00:31:46;102004.23;;;16.11;55.23
55044;BME280;54902;50.420;18.854;2022-07-25T00:32:03;101999.85;;;16.08;55.24
55044;BME280;54902;50.420;18.854;2022-07-25T00:32:19;101988.77;;;16.08;55.28
55044;BME280;54902;50.420;18.854;2022-07-25T00:32:35;101990.80;;;16.06;55.33
55044;BME280;54902;50.420;18.854;2022-07-25T00:32:52;101999.11;;;16.06;55.40
55044;BME280;54902;50.420;18.854;2022-07-25T00:33:08;101995.47;;;16.06;55.35
55044;BME280;54902;50.420;18.854;2022-07-25T00:33:24;101996.20;;;16.08;55.37
55044;BME280;54902;50.420;18.854;2022-07-25T00:33:40;101995.47;;;16.06;55.24
55044;BME280;54902;50.420;18.854;2022-07-25T00:33:57;102001.72;;;16.08;55.29
55044;BME280;54902;50.420;18.854;2022-07-25T00:34:13;101997.38;;;16.05;55.33
55044;BME280;54902;50.420;18.854;2022-07-25T00:34:29;102003.77;;;16.06;55.35
55044;BME280;54902;50.420;18.854;2022-07-25T00:34:45;101996.34;;;16.06;55.35
55044;BME280;54902;50.420;18.854;2022-07-25T00:35:01;101995.47;;;16.06;55.27
55044;BME280;54902;50.420;18.854;2022-07-25T00:35:17;101989.94;;;16.06;55.33
55044;BME280;54902;50.420;18.854;2022-07-25T00:35:33;101992.86;;;16.04;55.25
55044;BME280;54902;50.420;18.854;2022-07-25T00:35:50;102007.70;;;16.03;55.42
55044;BME280;54902;50.420;18.854;2022-07-25T00:36:07;102001.16;;;16.04;55.40
55044;BME280;54902;50.420;18.854;2022-07-25T00:36:15;101994.88;;;16.02;55.53
55044;BME280;54902;50.420;18.854;2022-07-25T00:36:23;101996.63;;;16.03;55.39
55044;BME280;54902;50.420;18.854;2022-07-25T00:36:40;101999.40;;;16.03;55.29
55044;BME280;54902;50.420;18.854;2022-07-25T00:36:56;101990.38;;;16.01;55.50
55044;BME280;54902;50.420;18.854;2022-07-25T00:37:12;101993.86;;;16.03;55.35
55044;BME280;54902;50.420;18.854;2022-07-25T00:37:28;101992.26;;;16.01;55.38
55044;BME280;54902;50.420;18.854;2022-07-25T00:37:44;101997.64;;;16.02;55.34
55044;BME280;54902;50.420;18.854;2022-07-25T00:38:00;101994.88;;;16.02;55.33
55044;BME280;54902;50.420;18.854;2022-07-25T00:38:16;101999.40;;;16.03;55.42
55044;BME280;54902;50.420;18.854;2022-07-25T00:38:32;102001.31;;;16.03;55.39
55044;BME280;54902;50.420;18.854;2022-07-25T00:38:48;101996.03;;;16.00;55.51
55044;BME280;54902;50.420;18.854;2022-07-25T00:39:04;101989.63;;;15.99;55.32
55044;BME280;54902;50.420;18.854;2022-07-25T00:39:20;102005.09;;;16.02;55.48
55044;BME280;54902;50.420;18.854;2022-07-25T00:39:36;101996.03;;;16.00;55.33
55044;BME280;54902;50.420;18.854;2022-07-25T00:39:52;101987.88;;;15.98;55.26
55044;BME280;54902;50.420;18.854;2022-07-25T00:40:09;101996.92;;;16.00;55.39
55044;BME280;54902;50.420;18.854;2022-07-25T00:40:25;101992.41;;;15.99;55.45
55044;BME280;54902;50.420;18.854;2022-07-25T00:40:41;101986.12;;;15.97;55.43
55044;BME280;54902;50.420;18.854;2022-07-25T00:40:58;101997.95;;;15.99;55.39
55044;BME280;54902;50.420;18.854;2022-07-25T00:41:14;101989.94;;;15.96;55.36
55044;BME280;54902;50.420;18.854;2022-07-25T00:41:30;101994.42;;;15.97;55.30
55044;BME280;54902;50.420;18.854;2022-07-25T00:41:47;102002.01;;;15.95;55.54
55044;BME280;54902;50.420;18.854;2022-07-25T00:42:04;101995.61;;;15.95;55.38
55044;BME280;54902;50.420;18.854;2022-07-25T00:42:20;101993.72;;;15.95;55.44
55044;BME280;54902;50.420;18.854;2022-07-25T00:42:38;101996.48;;;15.95;55.49
55044;BME280;54902;50.420;18.854;2022-07-25T00:42:54;102003.02;;;15.94;55.48
55044;BME280;54902;50.420;18.854;2022-07-25T00:43:10;101998.49;;;15.93;55.37
55044;BME280;54902;50.420;18.854;2022-07-25T00:43:28;102001.27;;;15.93;55.54
55044;BME280;54902;50.420;18.854;2022-07-25T00:43:45;102003.92;;;15.95;55.60
55044;BME280;54902;50.420;18.854;2022-07-25T00:44:01;102001.27;;;15.93;55.57
55044;BME280;54902;50.420;18.854;2022-07-25T00:44:23;102000.41;;;15.93;55.57
55044;BME280;54902;50.420;18.854;2022-07-25T00:44:40;101993.11;;;15.92;55.60
55044;BME280;54902;50.420;18.854;2022-07-25T00:44:56;101999.54;;;15.92;55.48
55044;BME280;54902;50.420;18.854;2022-07-25T00:45:14;101996.92;;;15.91;55.54
55044;BME280;54902;50.420;18.854;2022-07-25T00:45:30;102002.30;;;15.92;55.36
55044;BME280;54902;50.420;18.854;2022-07-25T00:45:46;102000.55;;;15.91;55.49
55044;BME280;54902;50.420;18.854;2022-07-25T00:46:02;102000.70;;;15.90;55.45
55044;BME280;54902;50.420;18.854;2022-07-25T00:46:18;102001.41;;;15.92;55.51
55044;BME280;54902;50.420;18.854;2022-07-25T00:46:37;102001.70;;;15.89;55.63
55044;BME280;54902;50.420;18.854;2022-07-25T00:46:55;102002.57;;;15.89;55.52
55044;BME280;54902;50.420;18.854;2022-07-25T00:47:11;101997.18;;;15.88;55.59
55044;BME280;54902;50.420;18.854;2022-07-25T00:47:27;102005.33;;;15.89;55.62
55044;BME280;54902;50.420;18.854;2022-07-25T00:47:43;101988.02;;;15.87;55.54
55044;BME280;54902;50.420;18.854;2022-07-25T00:47:59;102007.09;;;15.90;55.46
55044;BME280;54902;50.420;18.854;2022-07-25T00:48:15;102000.84;;;15.88;55.58
55044;BME280;54902;50.420;18.854;2022-07-25T00:48:31;101997.18;;;15.88;55.57
55044;BME280;54902;50.420;18.854;2022-07-25T00:48:47;101993.55;;;15.87;55.55
55044;BME280;54902;50.420;18.854;2022-07-25T00:49:04;101996.33;;;15.87;55.60
55044;BME280;54902;50.420;18.854;2022-07-25T00:49:20;102005.33;;;15.89;55.64
55044;BME280;54902;50.420;18.854;2022-07-25T00:49:36;102003.61;;;15.88;55.59
55044;BME280;54902;50.420;18.854;2022-07-25T00:49:52;102004.47;;;15.89;55.65
55044;BME280;54902;50.420;18.854;2022-07-25T00:50:08;102000.99;;;15.87;55.62
55044;BME280;54902;50.420;18.854;2022-07-25T00:50:25;102000.09;;;15.86;55.65
55044;BME280;54902;50.420;18.854;2022-07-25T00:50:41;102003.76;;;15.87;55.67
55044;BME280;54902;50.420;18.854;2022-07-25T00:50:57;102002.86;;;15.86;55.72
55044;BME280;54902;50.420;18.854;2022-07-25T00:51:15;102010.30;;;15.86;55.62
55044;BME280;54902;50.420;18.854;2022-07-25T00:51:21;102010.30;;;15.86;55.72
55044;BME280;54902;50.420;18.854;2022-07-25T00:51:31;102001.99;;;15.86;55.58
55044;BME280;54902;50.420;18.854;2022-07-25T00:51:48;102004.76;;;15.86;55.64
55044;BME280;54902;50.420;18.854;2022-07-25T00:52:05;102001.10;;;15.85;55.72
55044;BME280;54902;50.420;18.854;2022-07-25T00:52:22;102001.24;;;15.84;55.69
55044;BME280;54902;50.420;18.854;2022-07-25T00:52:39;102002.13;;;15.84;55.63
55044;BME280;54902;50.420;18.854;2022-07-25T00:52:55;102012.31;;;15.84;55.76
55044;BME280;54902;50.420;18.854;2022-07-25T00:53:11;102007.68;;;15.84;55.65
55044;BME280;54902;50.420;18.854;2022-07-25T00:53:28;102010.70;;;15.81;55.87
55044;BME280;54902;50.420;18.854;2022-07-25T00:53:45;102005.02;;;15.83;56.00
55044;BME280;54902;50.420;18.854;2022-07-25T00:54:09;102016.24;;;15.81;55.92
55044;BME280;54902;50.420;18.854;2022-07-25T00:54:26;102012.61;;;15.81;56.04
55044;BME280;54902;50.420;18.854;2022-07-25T00:54:42;101998.92;;;15.79;55.87
55044;BME280;54902;50.420;18.854;2022-07-25T00:54:58;102002.55;;;15.80;55.81
55044;BME280;54902;50.420;18.854;2022-07-25T00:55:14;102006.22;;;15.80;55.99
55044;BME280;54902;50.420;18.854;2022-07-25T00:55:31;102004.45;;;15.79;55.84
55044;BME280;54902;50.420;18.854;2022-07-25T00:55:48;102000.69;;;15.80;55.74
55044;BME280;54902;50.420;18.854;2022-07-25T00:56:06;102002.70;;;15.78;55.84
55044;BME280;54902;50.420;18.854;2022-07-25T00:56:23;102003.71;;;15.77;55.69
55044;BME280;54902;50.420;18.854;2022-07-25T00:56:40;101998.02;;;15.79;55.79
55044;BME280;54902;50.420;18.854;2022-07-25T00:56:57;102002.70;;;15.78;55.88
55044;BME280;54902;50.420;18.854;2022-07-25T00:57:13;102000.80;;;15.79;55.68
55044;BME280;54902;50.420;18.854;2022-07-25T00:57:29;102006.34;;;15.79;55.84
55044;BME280;54902;50.420;18.854;2022-07-25T00:57:47;102005.45;;;15.78;55.81
55044;BME280;54902;50.420;18.854;2022-07-25T00:58:14;101999.21;;;15.76;55.82
55044;BME280;54902;50.420;18.854;2022-07-25T00:58:31;102000.08;;;15.77;55.79
55044;BME280;54902;50.420;18.854;2022-07-25T00:58:47;101992.94;;;15.74;55.87
55044;BME280;54902;50.420;18.854;2022-07-25T00:59:03;101996.57;;;15.75;55.89
55044;BME280;54902;50.420;18.854;2022-07-25T00:59:19;102011.15;;;15.77;55.79
55044;BME280;54902;50.420;18.854;2022-07-25T00:59:35;102001.09;;;15.76;55.76
55044;BME280;54902;50.420;18.854;2022-07-25T00:59:51;101998.61;;;15.73;55.80
55044;BME280;54902;50.420;18.854;2022-07-25T01:00:12;102008.77;;;15.72;55.97
55044;BME280;54902;50.420;18.854;2022-07-25T01:00:28;101999.77;;;15.71;55.84
55044;BME280;54902;50.420;18.854;2022-07-25T01:00:45;101994.23;;;15.71;56.01
55044;BME280;54902;50.420;18.854;2022-07-25T01:01:02;101995.09;;;15.71;55.86
55044;BME280;54902;50.420;18.854;2022-07-25T01:01:18;101998.01;;;15.70;55.93
55044;BME280;54902;50.420;18.854;2022-07-25T01:01:37;102003.54;;;15.70;56.06
55044;BME280;54902;50.420;18.854;2022-07-25T01:01:53;102005.30;;;15.71;55.94
55044;BME280;54902;50.420;18.854;2022-07-25T01:02:16;102000.92;;;15.68;56.08
55044;BME280;54902;50.420;18.854;2022-07-25T01:02:32;101992.47;;;15.70;56.05
55044;BME280;54902;50.420;18.854;2022-07-25T01:02:48;101995.24;;;15.70;56.01
55044;BME280;54902;50.420;18.854;2022-07-25T01:03:04;101993.48;;;15.69;56.00
55044;BME280;54902;50.420;18.854;2022-07-25T01:03:21;101997.15;;;15.69;55.97
55044;BME280;54902;50.420;18.854;2022-07-25T01:03:37;101998.16;;;15.68;56.14
55044;BME280;54902;50.420;18.854;2022-07-25T01:03:53;101992.62;;;15.68;55.96
55044;BME280;54902;50.420;18.854;2022-07-25T01:04:09;102000.05;;;15.68;55.96
55044;BME280;54902;50.420;18.854;2022-07-25T01:04:26;101993.63;;;15.67;56.01
55044;BME280;54902;50.420;18.854;2022-07-25T01:04:42;102000.05;;;15.68;55.84
55044;BME280;54902;50.420;18.854;2022-07-25T01:04:58;101992.02;;;15.65;56.00
55044;BME280;54902;50.420;18.854;2022-07-25T01:05:14;101993.63;;;15.67;55.95
55044;BME280;54902;50.420;18.854;2022-07-25T01:05:30;101993.63;;;15.67;55.92
55044;BME280;54902;50.420;18.854;2022-07-25T01:05:46;101992.76;;;15.67;55.95
55044;BME280;54902;50.420;18.854;2022-07-25T01:06:05;101992.76;;;15.67;55.94
55044;BME280;54902;50.420;18.854;2022-07-25T01:06:22;101994.67;;;15.66;56.01
55044;BME280;54902;50.420;18.854;2022-07-25T01:06:29;102004.84;;;15.66;56.02
55044;BME280;54902;50.420;18.854;2022-07-25T01:06:39;101994.79;;;15.65;55.89
55044;BME280;54902;50.420;18.854;2022-07-25T01:06:55;101991.01;;;15.66;55.88
55044;BME280;54902;50.420;18.854;2022-07-25T01:07:11;101988.24;;;15.66;55.94
55044;BME280;54902;50.420;18.854;2022-07-25T01:07:28;101996.53;;;15.66;55.82
55044;BME280;54902;50.420;18.854;2022-07-25T01:07:45;102000.30;;;15.65;55.95
55044;BME280;54902;50.420;18.854;2022-07-25T01:08:02;101983.73;;;15.65;55.98
55044;BME280;54902;50.420;18.854;2022-07-25T01:08:20;101992.02;;;15.65;56.03
55044;BME280;54902;50.420;18.854;2022-07-25T01:08:36;101984.76;;;15.64;56.00
55044;BME280;54902;50.420;18.854;2022-07-25T01:08:53;101993.77;;;15.66;56.07
55044;BME280;54902;50.420;18.854;2022-07-25T01:09:10;101993.06;;;15.64;55.97
55044;BME280;54902;50.420;18.854;2022-07-25T01:09:26;101992.02;;;15.65;55.97
55044;BME280;54902;50.420;18.854;2022-07-25T01:09:43;101992.91;;;15.65;55.97
55044;BME280;54902;50.420;18.854;2022-07-25T01:10:00;101990.15;;;15.65;55.92
55044;BME280;54902;50.420;18.854;2022-07-25T01:10:17;101993.06;;;15.64;55.99
55044;BME280;54902;50.420;18.854;2022-07-25T01:10:34;101992.91;;;15.65;55.90
55044;BME280;54902;50.420;18.854;2022-07-25T01:10:50;101990.29;;;15.64;55.97
55044;BME280;54902;50.420;18.854;2022-07-25T01:11:07;101998.59;;;15.64;56.05
55044;BME280;54902;50.420;18.854;2022-07-25T01:11:24;101992.16;;;15.63;55.95
55044;BME280;54902;50.420;18.854;2022-07-25T01:11:40;101996.69;;;15.64;55.95
55044;BME280;54902;50.420;18.854;2022-07-25T01:11:56;101988.54;;;15.63;56.10
55044;BME280;54902;50.420;18.854;2022-07-25T01:12:12;101980.54;;;15.60;56.03
55044;BME280;54902;50.420;18.854;2022-07-25T01:12:28;101989.55;;;15.62;55.99
55044;BME280;54902;50.420;18.854;2022-07-25T01:12:49;101982.25;;;15.61;55.90
55044;BME280;54902;50.420;18.854;2022-07-25T01:13:06;101995.08;;;15.62;55.82
55044;BME280;54902;50.420;18.854;2022-07-25T01:13:22;101984.16;;;15.60;55.88
55044;BME280;54902;50.420;18.854;2022-07-25T01:13:39;101989.69;;;15.60;56.17
55044;BME280;54902;50.420;18.854;2022-07-25T01:13:55;101987.93;;;15.59;56.20
55044;BME280;54902;50.420;18.854;2022-07-25T01:14:21;101997.13;;;15.60;56.23
55044;BME280;54902;50.420;18.854;2022-07-25T01:14:37;101993.31;;;15.61;56.22
55044;BME280;54902;50.420;18.854;2022-07-25T01:14:55;101996.23;;;15.59;56.28
55044;BME280;54902;50.420;18.854;2022-07-25T01:15:17;101995.37;;;15.59;56.35
55044;BME280;54902;50.420;18.854;2022-07-25T01:15:33;101986.17;;;15.58;56.28
55044;BME280;54902;50.420;18.854;2022-07-25T01:15:49;101985.17;;;15.59;56.21
55044;BME280;54902;50.420;18.854;2022-07-25T01:16:06;101980.64;;;15.58;56.33
55044;BME280;54902;50.420;18.854;2022-07-25T01:16:22;101993.31;;;15.61;56.17
55044;BME280;54902;50.420;18.854;2022-07-25T01:16:38;101979.64;;;15.59;56.29
55044;BME280;54902;50.420;18.854;2022-07-25T01:16:55;101976.87;;;15.59;56.14
55044;BME280;54902;50.420;18.854;2022-07-25T01:17:12;101986.93;;;15.60;56.22
55044;BME280;54902;50.420;18.854;2022-07-25T01:17:28;101984.30;;;15.59;56.24
55044;BME280;54902;50.420;18.854;2022-07-25T01:17:44;101989.55;;;15.62;56.35
55044;BME280;54902;50.420;18.854;2022-07-25T01:18:01;101988.68;;;15.61;56.23
55044;BME280;54902;50.420;18.854;2022-07-25T01:18:17;101983.41;;;15.58;56.20
55044;BME280;54902;50.420;18.854;2022-07-25T01:18:33;101985.17;;;15.59;56.21
55044;BME280;54902;50.420;18.854;2022-07-25T01:18:49;101986.93;;;15.60;56.25
55044;BME280;54902;50.420;18.854;2022-07-25T01:19:05;101976.01;;;15.59;56.24
55044;BME280;54902;50.420;18.854;2022-07-25T01:19:23;101987.79;;;15.61;56.16
55044;BME280;54902;50.420;18.854;2022-07-25T01:19:39;101979.64;;;15.59;56.21
55044;BME280;54902;50.420;18.854;2022-07-25T01:19:55;101979.64;;;15.59;56.23
55044;BME280;54902;50.420;18.854;2022-07-25T01:20:15;101985.17;;;15.59;56.12
55044;BME280;54902;50.420;18.854;2022-07-25T01:20:34;101994.62;;;15.57;56.30
55044;BME280;54902;50.420;18.854;2022-07-25T01:20:50;101989.83;;;15.59;56.36
55044;BME280;54902;50.420;18.854;2022-07-25T01:21:07;101980.79;;;15.57;56.27
55044;BME280;54902;50.420;18.854;2022-07-25T01:21:24;101979.78;;;15.58;56.21
55044;BME280;54902;50.420;18.854;2022-07-25T01:21:31;101995.37;;;15.59;56.31
55044;BME280;54902;50.420;18.854;2022-07-25T01:21:41;101984.45;;;15.57;56.13
55044;BME280;54902;50.420;18.854;2022-07-25T01:21:58;101982.55;;;15.58;56.31
55044;BME280;54902;50.420;18.854;2022-07-25T01:22:14;101988.08;;;15.58;56.14
55044;BME280;54902;50.420;18.854;2022-07-25T01:22:30;101982.69;;;15.56;56.13
55044;BME280;54902;50.420;18.854;2022-07-25T01:22:46;101991.71;;;15.58;56.34
55044;BME280;54902;50.420;18.854;2022-07-25T01:23:02;101988.08;;;15.58;56.21
55044;BME280;54902;50.420;18.854;2022-07-25T01:23:18;101990.99;;;15.56;56.30
55044;BME280;54902;50.420;18.854;2022-07-25T01:23:35;101984.45;;;15.57;56.22
55044;BME280;54902;50.420;18.854;2022-07-25T01:23:51;101984.45;;;15.57;56.28
55044;BME280;54902;50.420;18.854;2022-07-25T01:24:08;101989.98;;;15.57;56.34